createdAt,value
2023-03-15T00:00:10.957Z,969.15
2023-03-15T00:01:10.924Z,969.10
2023-03-15T00:02:10.947Z,969.07
2023-03-15T00:03:10.894Z,969.05
2023-03-15T00:04:10.876Z,969.03
2023-03-15T00:05:10.870Z,969.04
2023-03-15T00:06:10.850Z,969.03
2023-03-15T00:07:10.833Z,969.03
2023-03-15T00:08:10.815Z,969.15
2023-03-15T00:09:10.801Z,969.20
2023-03-15T00:10:10.788Z,969.22
2023-03-15T00:11:10.770Z,969.23
2023-03-15T00:12:10.756Z,969.28
2023-03-15T00:13:10.748Z,969.24
2023-03-15T00:14:10.732Z,969.25
2023-03-15T00:15:10.712Z,969.26
2023-03-15T00:16:10.736Z,969.30
2023-03-15T00:17:10.680Z,969.29
2023-03-15T00:18:10.667Z,969.27
2023-03-15T00:19:10.647Z,969.30
2023-03-15T00:20:10.639Z,969.32
2023-03-15T00:21:10.619Z,969.32
2023-03-15T00:22:10.599Z,969.31
2023-03-15T00:23:10.586Z,969.28
2023-03-15T00:24:10.569Z,969.35
2023-03-15T00:25:10.555Z,969.36
2023-03-15T00:26:10.537Z,969.35
2023-03-15T00:27:10.527Z,969.36
2023-03-15T00:28:10.511Z,969.39
2023-03-15T00:29:10.491Z,969.44
2023-03-15T00:30:10.478Z,969.46
2023-03-15T00:31:10.518Z,969.43
2023-03-15T00:32:10.468Z,969.45
2023-03-15T00:33:10.432Z,969.51
2023-03-15T00:34:10.417Z,969.57
2023-03-15T00:35:10.404Z,969.59
2023-03-15T00:36:10.461Z,969.59
2023-03-15T00:37:10.371Z,969.53
2023-03-15T00:38:10.379Z,969.59
2023-03-15T00:39:10.341Z,969.60
2023-03-15T00:40:10.325Z,969.59
2023-03-15T00:41:10.308Z,969.66
2023-03-15T00:42:10.298Z,969.69
2023-03-15T00:43:10.278Z,969.73
2023-03-15T00:44:10.267Z,969.78
2023-03-15T00:45:10.247Z,969.82
2023-03-15T00:46:10.262Z,969.82
2023-03-15T00:47:10.215Z,969.87
2023-03-15T00:48:10.230Z,969.85
2023-03-15T00:49:10.193Z,969.86
2023-03-15T00:50:10.183Z,969.85
2023-03-15T00:51:10.154Z,969.90
2023-03-15T00:52:10.143Z,969.93
2023-03-15T00:53:10.129Z,969.94
2023-03-15T00:54:10.113Z,969.93
2023-03-15T00:55:10.093Z,969.96
2023-03-15T00:56:10.087Z,969.95
2023-03-15T00:57:10.062Z,970.00
2023-03-15T00:58:10.052Z,970.04
2023-03-15T00:59:10.044Z,970.10
2023-03-15T01:00:10.031Z,970.15
2023-03-15T01:01:10.003Z,970.25
2023-03-15T01:02:10.078Z,970.18
2023-03-15T01:03:10.061Z,970.20
2023-03-15T01:04:09.982Z,970.17
2023-03-15T01:05:09.945Z,970.23
2023-03-15T01:06:09.929Z,970.12
2023-03-15T01:07:09.927Z,970.18
2023-03-15T01:08:09.895Z,970.21
2023-03-15T01:09:09.878Z,970.17
2023-03-15T01:10:09.868Z,970.19
2023-03-15T01:11:09.845Z,970.28
2023-03-15T01:12:09.834Z,970.28
2023-03-15T01:13:09.816Z,970.29
2023-03-15T01:14:09.827Z,970.30
2023-03-15T01:15:09.782Z,970.28
2023-03-15T01:16:09.837Z,970.32
2023-03-15T01:17:09.759Z,970.26
2023-03-15T01:18:09.746Z,970.30
2023-03-15T01:19:09.721Z,970.30
2023-03-15T01:20:09.731Z,970.31
2023-03-15T01:21:09.702Z,970.35
2023-03-15T01:22:09.678Z,970.43
2023-03-15T01:23:09.661Z,970.39
2023-03-15T01:24:09.648Z,970.42
2023-03-15T01:25:09.643Z,970.33
2023-03-15T01:26:09.615Z,970.38
2023-03-15T01:27:09.596Z,970.40
2023-03-15T01:28:09.617Z,970.39
2023-03-15T01:29:09.570Z,970.44
2023-03-15T01:30:09.553Z,970.46
2023-03-15T01:31:09.600Z,970.46
2023-03-15T01:32:09.527Z,970.50
2023-03-15T01:33:09.525Z,970.58
2023-03-15T01:34:09.535Z,970.57
2023-03-15T01:35:09.475Z,970.60
2023-03-15T01:36:09.573Z,970.68
2023-03-15T01:37:09.442Z,970.65
2023-03-15T01:38:09.439Z,970.68
2023-03-15T01:39:09.412Z,970.68
2023-03-15T01:40:09.403Z,970.70
2023-03-15T01:41:09.383Z,970.71
2023-03-15T01:42:09.367Z,970.70
2023-03-15T01:43:09.346Z,970.71
2023-03-15T01:44:09.334Z,970.72
2023-03-15T01:45:09.318Z,970.73
2023-03-15T01:46:09.302Z,970.74
2023-03-15T01:47:09.359Z,970.69
2023-03-15T01:48:09.272Z,970.72
2023-03-15T01:49:09.253Z,970.81
2023-03-15T01:50:09.241Z,970.74
2023-03-15T01:51:09.225Z,970.81
2023-03-15T01:52:09.232Z,970.81
2023-03-15T01:53:09.392Z,970.79
2023-03-15T01:54:09.180Z,970.80
2023-03-15T01:55:09.157Z,970.82
2023-03-15T01:56:09.146Z,970.80
2023-03-15T01:57:09.126Z,970.78
2023-03-15T01:58:09.115Z,970.77
2023-03-15T01:59:09.095Z,970.81
2023-03-15T02:00:09.079Z,970.77
2023-03-15T02:01:09.127Z,970.85
2023-03-15T02:02:09.077Z,970.83
2023-03-15T02:03:09.035Z,970.80
2023-03-15T02:04:09.020Z,970.76
2023-03-15T02:05:08.999Z,970.80
2023-03-15T02:06:08.986Z,970.82
2023-03-15T02:07:08.983Z,970.79
2023-03-15T02:08:08.983Z,970.82
2023-03-15T02:09:08.935Z,970.82
2023-03-15T02:11:08.905Z,970.80
2023-03-15T02:12:08.887Z,970.81
2023-03-15T02:13:08.873Z,970.83
2023-03-15T02:14:08.855Z,970.81
2023-03-15T02:15:08.842Z,970.85
2023-03-15T02:16:08.889Z,970.84
2023-03-15T02:17:08.811Z,970.88
2023-03-15T02:18:08.798Z,970.89
2023-03-15T02:19:08.985Z,970.97
2023-03-15T02:20:08.786Z,970.93
2023-03-15T02:21:08.747Z,970.94
2023-03-15T02:22:08.739Z,970.99
2023-03-15T02:23:08.714Z,971.01
2023-03-15T02:24:08.721Z,971.02
2023-03-15T02:25:08.683Z,971.05
2023-03-15T02:26:08.664Z,971.09
2023-03-15T02:27:08.701Z,971.08
2023-03-15T02:28:08.632Z,971.13
2023-03-15T02:29:08.620Z,971.11
2023-03-15T02:30:08.599Z,971.15
2023-03-15T02:31:08.587Z,971.14
2023-03-15T02:32:08.568Z,971.17
2023-03-15T02:33:08.556Z,971.16
2023-03-15T02:34:08.544Z,971.20
2023-03-15T02:35:08.529Z,971.23
2023-03-15T02:36:08.536Z,971.23
2023-03-15T02:37:08.492Z,971.25
2023-03-15T02:38:08.475Z,971.27
2023-03-15T02:39:08.462Z,971.28
2023-03-15T02:40:08.470Z,971.33
2023-03-15T02:41:08.433Z,971.27
2023-03-15T02:42:08.408Z,971.31
2023-03-15T02:43:08.393Z,971.33
2023-03-15T02:44:08.375Z,971.33
2023-03-15T02:45:08.369Z,971.34
2023-03-15T02:46:08.409Z,971.36
2023-03-15T02:47:08.330Z,971.36
2023-03-15T02:48:08.310Z,971.36
2023-03-15T02:49:08.301Z,971.37
2023-03-15T02:50:08.286Z,971.41
2023-03-15T02:51:08.270Z,971.40
2023-03-15T02:52:08.250Z,971.43
2023-03-15T02:53:08.240Z,971.43
2023-03-15T02:54:08.425Z,971.45
2023-03-15T02:55:08.209Z,971.45
2023-03-15T02:56:08.208Z,971.53
2023-03-15T02:57:08.172Z,971.54
2023-03-15T02:58:08.154Z,971.54
2023-03-15T02:59:08.136Z,971.54
2023-03-15T03:00:08.120Z,971.60
2023-03-15T03:01:08.162Z,971.57
2023-03-15T03:02:08.097Z,971.59
2023-03-15T03:03:08.081Z,971.57
2023-03-15T03:04:08.052Z,971.61
2023-03-15T03:05:08.044Z,971.66
2023-03-15T03:06:08.029Z,971.70
2023-03-15T03:07:08.034Z,971.69
2023-03-15T03:08:08.021Z,971.72
2023-03-15T03:09:07.996Z,971.75
2023-03-15T03:10:07.972Z,971.74
2023-03-15T03:11:07.948Z,971.76
2023-03-15T03:12:07.992Z,971.71
2023-03-15T03:13:07.919Z,971.81
2023-03-15T03:14:07.893Z,971.78
2023-03-15T03:15:07.882Z,971.81
2023-03-15T03:16:07.861Z,971.88
2023-03-15T03:17:07.848Z,971.87
2023-03-15T03:18:07.828Z,971.83
2023-03-15T03:19:07.813Z,971.86
2023-03-15T03:20:07.793Z,971.87
2023-03-15T03:21:07.782Z,971.89
2023-03-15T03:22:07.761Z,971.91
2023-03-15T03:23:07.747Z,971.93
2023-03-15T03:24:07.725Z,971.94
2023-03-15T03:25:07.712Z,971.95
2023-03-15T03:26:07.693Z,971.92
2023-03-15T03:27:07.678Z,971.91
2023-03-15T03:28:07.677Z,971.93
2023-03-15T03:29:07.659Z,971.94
2023-03-15T03:30:07.630Z,971.93
2023-03-15T03:31:07.697Z,971.97
2023-03-15T03:32:07.589Z,971.98
2023-03-15T03:33:07.575Z,971.96
2023-03-15T03:34:07.759Z,972.00
2023-03-15T03:35:07.542Z,972.04
2023-03-15T03:36:07.550Z,972.12
2023-03-15T03:37:07.510Z,972.13
2023-03-15T03:38:07.493Z,972.10
2023-03-15T03:39:07.474Z,972.12
2023-03-15T03:40:07.456Z,972.10
2023-03-15T03:41:07.444Z,972.09
2023-03-15T03:42:07.429Z,972.14
2023-03-15T03:43:07.407Z,972.11
2023-03-15T03:44:07.419Z,972.15
2023-03-15T03:45:07.381Z,972.13
2023-03-15T03:46:07.430Z,972.14
2023-03-15T03:47:07.342Z,972.16
2023-03-15T03:48:07.321Z,972.16
2023-03-15T03:49:07.306Z,972.14
2023-03-15T03:50:07.287Z,972.17
2023-03-15T03:51:07.272Z,972.18
2023-03-15T03:52:07.254Z,972.21
2023-03-15T03:53:07.240Z,972.21
2023-03-15T03:54:07.221Z,972.26
2023-03-15T03:55:07.225Z,972.28
2023-03-15T03:56:07.195Z,972.30
2023-03-15T03:57:07.181Z,972.25
2023-03-15T03:58:07.156Z,972.28
2023-03-15T03:59:07.139Z,972.33
2023-03-15T04:00:07.136Z,972.35
2023-03-15T04:01:07.106Z,972.39
2023-03-15T04:02:07.089Z,972.41
2023-03-15T04:03:07.072Z,972.44
2023-03-15T04:04:07.050Z,972.40
2023-03-15T04:05:07.042Z,972.47
2023-03-15T04:06:07.023Z,972.47
2023-03-15T04:07:07.005Z,972.51
2023-03-15T04:08:06.987Z,972.49
2023-03-15T04:09:06.973Z,972.51
2023-03-15T04:10:06.957Z,972.54
2023-03-15T04:11:06.938Z,972.54
2023-03-15T04:12:06.945Z,972.56
2023-03-15T04:13:06.905Z,972.57
2023-03-15T04:14:06.885Z,972.56
2023-03-15T04:15:06.872Z,972.60
2023-03-15T04:16:07.069Z,972.56
2023-03-15T04:17:06.836Z,972.61
2023-03-15T04:18:06.819Z,972.64
2023-03-15T04:19:06.808Z,972.62
2023-03-15T04:20:06.785Z,972.66
2023-03-15T04:21:06.773Z,972.66
2023-03-15T04:22:06.805Z,972.71
2023-03-15T04:23:06.743Z,972.73
2023-03-15T04:24:06.721Z,972.73
2023-03-15T04:25:06.708Z,972.75
2023-03-15T04:26:06.704Z,972.80
2023-03-15T04:27:06.676Z,972.83
2023-03-15T04:28:06.654Z,972.84
2023-03-15T04:29:06.645Z,972.86
2023-03-15T04:30:06.625Z,972.87
2023-03-15T04:31:06.644Z,972.93
2023-03-15T04:32:06.614Z,972.89
2023-03-15T04:33:06.582Z,972.90
2023-03-15T04:34:06.560Z,972.87
2023-03-15T04:35:06.548Z,972.88
2023-03-15T04:36:06.570Z,972.89
2023-03-15T04:37:06.526Z,972.91
2023-03-15T04:38:06.496Z,972.92
2023-03-15T04:39:06.481Z,972.95
2023-03-15T04:40:06.462Z,972.93
2023-03-15T04:41:06.453Z,972.96
2023-03-15T04:42:06.430Z,972.93
2023-03-15T04:43:06.428Z,972.96
2023-03-15T04:44:06.397Z,972.98
2023-03-15T04:45:06.384Z,973.01
2023-03-15T04:46:06.376Z,973.02
2023-03-15T04:47:06.444Z,972.99
2023-03-15T04:48:06.353Z,973.01
2023-03-15T04:49:06.318Z,973.01
2023-03-15T04:50:06.303Z,973.05
2023-03-15T04:51:06.287Z,973.01
2023-03-15T04:52:06.275Z,972.97
2023-03-15T04:53:06.251Z,973.03
2023-03-15T04:54:06.238Z,973.07
2023-03-15T04:55:06.218Z,973.05
2023-03-15T04:56:06.205Z,973.08
2023-03-15T04:57:06.186Z,973.05
2023-03-15T04:58:06.172Z,973.06
2023-03-15T04:59:06.156Z,973.07
2023-03-15T05:00:06.137Z,973.08
2023-03-15T05:01:06.169Z,973.08
2023-03-15T05:02:06.150Z,973.11
2023-03-15T05:03:06.096Z,973.10
2023-03-15T05:04:06.092Z,973.13
2023-03-15T05:05:06.058Z,973.09
2023-03-15T05:06:06.043Z,973.10
2023-03-15T05:07:06.024Z,973.12
2023-03-15T05:08:06.011Z,973.09
2023-03-15T05:09:05.989Z,973.09
2023-03-15T05:10:05.979Z,973.13
2023-03-15T05:11:05.955Z,973.16
2023-03-15T05:12:05.942Z,973.16
2023-03-15T05:13:05.921Z,973.16
2023-03-15T05:14:05.908Z,973.14
2023-03-15T05:15:05.945Z,973.20
2023-03-15T05:16:05.991Z,973.17
2023-03-15T05:17:05.858Z,973.18
2023-03-15T05:18:05.843Z,973.18
2023-03-15T05:19:05.820Z,973.16
2023-03-15T05:20:05.828Z,973.16
2023-03-15T05:21:05.789Z,973.17
2023-03-15T05:22:05.776Z,973.19
2023-03-15T05:23:05.757Z,973.17
2023-03-15T05:24:05.749Z,973.18
2023-03-15T05:25:05.724Z,973.21
2023-03-15T05:26:05.709Z,973.20
2023-03-15T05:27:05.693Z,973.20
2023-03-15T05:28:05.675Z,973.21
2023-03-15T05:29:05.666Z,973.26
2023-03-15T05:30:05.649Z,973.24
2023-03-15T05:31:05.683Z,973.26
2023-03-15T05:32:05.728Z,973.24
2023-03-15T05:33:05.593Z,973.30
2023-03-15T05:34:05.577Z,973.31
2023-03-15T05:35:05.557Z,973.30
2023-03-15T05:36:05.561Z,973.34
2023-03-15T05:37:05.522Z,973.38
2023-03-15T05:38:05.510Z,973.44
2023-03-15T05:39:05.495Z,973.45
2023-03-15T05:40:05.477Z,973.49
2023-03-15T05:41:05.454Z,973.50
2023-03-15T05:42:05.491Z,973.51
2023-03-15T05:43:05.420Z,973.51
2023-03-15T05:44:05.408Z,973.50
2023-03-15T05:45:05.403Z,973.49
2023-03-15T05:46:05.481Z,973.52
2023-03-15T05:47:05.354Z,973.52
2023-03-15T05:48:05.342Z,973.52
2023-03-15T05:49:05.322Z,973.54
2023-03-15T05:50:05.307Z,973.55
2023-03-15T05:51:05.286Z,973.55
2023-03-15T05:52:05.301Z,973.49
2023-03-15T05:53:05.261Z,973.54
2023-03-15T05:54:05.239Z,973.56
2023-03-15T05:55:05.237Z,973.55
2023-03-15T05:56:05.203Z,973.55
2023-03-15T05:57:05.186Z,973.58
2023-03-15T05:58:05.172Z,973.56
2023-03-15T05:59:05.154Z,973.53
2023-03-15T06:00:05.146Z,973.53
2023-03-15T06:01:05.114Z,973.53
2023-03-15T06:02:05.100Z,973.57
2023-03-15T06:03:05.118Z,973.58
2023-03-15T06:04:05.131Z,973.60
2023-03-15T06:05:05.044Z,973.59
2023-03-15T06:06:05.050Z,973.56
2023-03-15T06:07:05.011Z,973.58
2023-03-15T06:08:05.128Z,973.60
2023-03-15T06:09:04.979Z,973.62
2023-03-15T06:10:04.978Z,973.60
2023-03-15T06:11:04.949Z,973.65
2023-03-15T06:12:04.940Z,973.68
2023-03-15T06:13:04.937Z,973.66
2023-03-15T06:14:04.942Z,973.68
2023-03-15T06:15:04.876Z,973.66
2023-03-15T06:16:04.863Z,973.74
2023-03-15T06:17:04.876Z,973.67
2023-03-15T06:18:04.830Z,973.69
2023-03-15T06:19:04.809Z,973.70
2023-03-15T06:20:04.798Z,973.66
2023-03-15T06:21:04.781Z,973.66
2023-03-15T06:22:04.761Z,973.67
2023-03-15T06:23:04.740Z,973.65
2023-03-15T06:24:04.746Z,973.66
2023-03-15T06:25:04.706Z,973.69
2023-03-15T06:26:04.693Z,973.70
2023-03-15T06:27:04.676Z,973.72
2023-03-15T06:28:04.657Z,973.73
2023-03-15T06:29:04.645Z,973.72
2023-03-15T06:30:04.630Z,973.71
2023-03-15T06:31:04.663Z,973.77
2023-03-15T06:32:04.595Z,973.78
2023-03-15T06:33:04.626Z,973.83
2023-03-15T06:34:04.557Z,973.84
2023-03-15T06:35:04.542Z,973.87
2023-03-15T06:36:04.583Z,973.87
2023-03-15T06:37:04.501Z,973.81
2023-03-15T06:38:04.490Z,973.87
2023-03-15T06:39:04.463Z,973.91
2023-03-15T06:40:04.475Z,973.86
2023-03-15T06:41:04.440Z,973.89
2023-03-15T06:42:04.426Z,973.89
2023-03-15T06:43:04.418Z,973.92
2023-03-15T06:44:04.385Z,973.89
2023-03-15T06:45:04.373Z,973.92
2023-03-15T06:46:04.382Z,973.94
2023-03-15T06:47:04.333Z,973.95
2023-03-15T06:48:04.323Z,973.90
2023-03-15T06:49:04.300Z,973.89
2023-03-15T06:50:04.284Z,973.98
2023-03-15T06:51:04.262Z,973.92
2023-03-15T06:52:04.249Z,973.94
2023-03-15T06:53:04.232Z,974.02
2023-03-15T06:54:04.220Z,974.02
2023-03-15T06:55:04.193Z,974.01
2023-03-15T06:56:04.216Z,973.97
2023-03-15T06:57:04.164Z,974.01
2023-03-15T06:58:04.178Z,974.04
2023-03-15T06:59:04.127Z,974.00
2023-03-15T07:00:04.114Z,974.01
2023-03-15T07:01:04.094Z,974.03
2023-03-15T07:02:04.084Z,974.05
2023-03-15T07:03:04.090Z,974.09
2023-03-15T07:04:04.184Z,974.06
2023-03-15T07:05:04.042Z,974.05
2023-03-15T07:06:04.016Z,974.06
2023-03-15T07:07:03.999Z,974.08
2023-03-15T07:08:03.986Z,974.09
2023-03-15T07:09:03.962Z,974.11
2023-03-15T07:10:03.954Z,974.10
2023-03-15T07:11:03.931Z,974.10
2023-03-15T07:12:03.943Z,974.14
2023-03-15T07:13:03.900Z,974.09
2023-03-15T07:14:03.888Z,974.16
2023-03-15T07:15:03.868Z,974.10
2023-03-15T07:16:03.999Z,974.11
2023-03-15T07:17:03.851Z,974.06
2023-03-15T07:18:03.839Z,974.16
2023-03-15T07:19:03.813Z,974.15
2023-03-15T07:20:03.794Z,974.18
2023-03-15T07:21:03.770Z,974.22
2023-03-15T07:22:03.784Z,974.24
2023-03-15T07:23:03.750Z,974.20
2023-03-15T07:24:03.725Z,974.22
2023-03-15T07:25:03.712Z,974.27
2023-03-15T07:26:03.693Z,974.26
2023-03-15T07:27:03.672Z,974.27
2023-03-15T07:28:03.688Z,974.28
2023-03-15T07:29:03.650Z,974.32
2023-03-15T07:30:03.630Z,974.27
2023-03-15T07:31:03.610Z,974.29
2023-03-15T07:32:03.663Z,974.32
2023-03-15T07:33:03.647Z,974.31
2023-03-15T07:34:03.572Z,974.26
2023-03-15T07:35:03.569Z,974.31
2023-03-15T07:36:03.597Z,974.28
2023-03-15T07:37:03.522Z,974.29
2023-03-15T07:38:03.505Z,974.27
2023-03-15T07:39:03.490Z,974.29
2023-03-15T07:40:03.476Z,974.29
2023-03-15T07:41:03.450Z,974.29
2023-03-15T07:42:03.441Z,974.30
2023-03-15T07:43:03.431Z,974.27
2023-03-15T07:44:03.457Z,974.34
2023-03-15T07:45:03.397Z,974.30
2023-03-15T07:46:03.384Z,974.34
2023-03-15T07:47:03.357Z,974.31
2023-03-15T07:48:03.342Z,974.34
2023-03-15T07:49:03.326Z,974.37
2023-03-15T07:50:03.323Z,974.38
2023-03-15T07:51:03.316Z,974.33
2023-03-15T07:52:03.287Z,974.34
2023-03-15T07:53:03.265Z,974.34
2023-03-15T07:54:03.249Z,974.35
2023-03-15T07:55:03.236Z,974.35
2023-03-15T07:56:03.220Z,974.34
2023-03-15T07:57:03.203Z,974.37
2023-03-15T07:58:03.194Z,974.35
2023-03-15T07:59:03.169Z,974.39
2023-03-15T08:00:03.178Z,974.36
2023-03-15T08:01:03.150Z,974.39
2023-03-15T08:02:03.430Z,974.41
2023-03-15T08:03:03.211Z,974.39
2023-03-15T08:04:03.123Z,974.38
2023-03-15T08:05:03.079Z,974.40
2023-03-15T08:06:03.069Z,974.43
2023-03-15T08:07:03.052Z,974.44
2023-03-15T08:08:03.045Z,974.42
2023-03-15T08:09:03.024Z,974.44
2023-03-15T08:10:03.011Z,974.42
2023-03-15T08:11:03.002Z,974.43
2023-03-15T08:12:03.036Z,974.50
2023-03-15T08:13:02.966Z,974.46
2023-03-15T08:14:02.952Z,974.44
2023-03-15T08:15:02.937Z,974.41
2023-03-15T08:16:02.996Z,974.42
2023-03-15T08:17:02.904Z,974.45
2023-03-15T08:18:04.199Z,974.44
2023-03-15T08:19:02.872Z,974.48
2023-03-15T08:20:02.872Z,974.43
2023-03-15T08:21:02.847Z,974.41
2023-03-15T08:22:02.833Z,974.47
2023-03-15T08:23:02.819Z,974.48
2023-03-15T08:24:02.810Z,974.46
2023-03-15T08:25:02.791Z,974.48
2023-03-15T08:26:02.783Z,974.48
2023-03-15T08:27:02.764Z,974.49
2023-03-15T08:28:02.757Z,974.47
2023-03-15T08:29:02.731Z,974.49
2023-03-15T08:30:02.724Z,974.49
2023-03-15T08:31:02.702Z,974.50
2023-03-15T08:32:02.762Z,974.49
2023-03-15T08:33:02.765Z,974.52
2023-03-15T08:34:02.665Z,974.52
2023-03-15T08:35:02.646Z,974.52
2023-03-15T08:36:02.663Z,974.53
2023-03-15T08:37:02.618Z,974.52
2023-03-15T08:38:02.640Z,974.51
2023-03-15T08:39:02.590Z,974.47
2023-03-15T08:40:02.616Z,974.48
2023-03-15T08:41:02.563Z,974.47
2023-03-15T08:42:02.556Z,974.50
2023-03-15T08:43:02.533Z,974.52
2023-03-15T08:44:02.522Z,974.52
2023-03-15T08:45:02.534Z,974.51
2023-03-15T08:46:02.575Z,974.49
2023-03-15T08:47:02.500Z,974.48
2023-03-15T08:48:02.485Z,974.49
2023-03-15T08:49:02.450Z,974.47
2023-03-15T08:50:02.448Z,974.48
2023-03-15T08:51:02.453Z,974.50
2023-03-15T08:52:02.410Z,974.48
2023-03-15T08:53:02.394Z,974.47
2023-03-15T08:54:02.432Z,974.51
2023-03-15T08:55:02.366Z,974.49
2023-03-15T08:56:02.670Z,974.50
2023-03-15T08:57:02.339Z,974.49
2023-03-15T08:58:04.392Z,974.50
2023-03-15T08:59:02.319Z,974.52
2023-03-15T09:00:02.304Z,974.52
2023-03-15T09:01:02.301Z,974.50
2023-03-15T09:02:02.316Z,974.50
2023-03-15T09:03:02.259Z,974.53
2023-03-15T09:04:02.280Z,974.48
2023-03-15T09:05:02.231Z,974.52
2023-03-15T09:06:02.222Z,974.50
2023-03-15T09:07:02.204Z,974.47
2023-03-15T09:08:02.198Z,974.50
2023-03-15T09:09:02.185Z,974.44
2023-03-15T09:10:05.296Z,974.46
2023-03-15T09:11:02.148Z,974.45
2023-03-15T09:12:02.133Z,974.46
2023-03-15T09:13:02.126Z,974.45
2023-03-15T09:14:02.104Z,974.48
2023-03-15T09:15:02.100Z,974.49
2023-03-15T09:16:02.081Z,974.53
2023-03-15T09:17:02.178Z,974.48
2023-03-15T09:18:02.051Z,974.51
2023-03-15T09:19:02.048Z,974.46
2023-03-15T09:20:02.103Z,974.53
2023-03-15T09:21:02.018Z,974.55
2023-03-15T09:22:16.064Z,974.56
2023-03-15T09:23:01.990Z,974.56
2023-03-15T09:24:01.975Z,974.59
2023-03-15T09:25:01.975Z,974.57
2023-03-15T09:26:01.949Z,974.62
2023-03-15T09:27:02.153Z,974.56
2023-03-15T09:28:01.924Z,974.62
2023-03-15T09:29:01.917Z,974.62
2023-03-15T09:30:01.895Z,974.62
2023-03-15T09:31:01.919Z,974.63
2023-03-15T09:32:01.870Z,974.64
2023-03-15T09:33:01.924Z,974.66
2023-03-15T09:34:01.846Z,974.68
2023-03-15T09:35:01.837Z,974.72
2023-03-15T09:36:01.899Z,974.68
2023-03-15T09:37:01.825Z,974.72
2023-03-15T09:38:01.794Z,974.73
2023-03-15T09:39:01.786Z,974.72
2023-03-15T09:40:01.778Z,974.73
2023-03-15T09:41:01.754Z,974.71
2023-03-15T09:42:01.744Z,974.69
2023-03-15T09:43:01.748Z,974.67
2023-03-15T09:44:01.718Z,974.67
2023-03-15T09:45:01.704Z,974.69
2023-03-15T09:46:01.738Z,974.69
2023-03-15T09:47:01.679Z,974.72
2023-03-15T09:48:01.665Z,974.73
2023-03-15T09:49:01.652Z,974.72
2023-03-15T09:50:01.635Z,974.73
2023-03-15T09:51:01.624Z,974.73
2023-03-15T09:52:01.634Z,974.67
2023-03-15T09:53:01.600Z,974.62
2023-03-15T09:54:01.590Z,974.66
2023-03-15T09:55:01.576Z,974.69
2023-03-15T09:56:01.558Z,974.76
2023-03-15T09:57:01.544Z,974.69
2023-03-15T09:58:01.550Z,974.73
2023-03-15T09:59:01.518Z,974.72
2023-03-15T10:00:01.545Z,974.67
2023-03-15T10:01:01.496Z,974.75
2023-03-15T10:02:01.517Z,974.79
2023-03-15T10:03:01.497Z,974.79
2023-03-15T10:04:01.501Z,974.77
2023-03-15T10:05:01.466Z,974.83
2023-03-15T10:06:01.443Z,974.82
2023-03-15T10:07:01.411Z,974.83
2023-03-15T10:08:01.416Z,974.83
2023-03-15T10:09:01.386Z,974.82
2023-03-15T10:10:01.408Z,974.79
2023-03-15T10:11:01.360Z,974.78
2023-03-15T10:12:01.346Z,974.78
2023-03-15T10:13:01.337Z,974.78
2023-03-15T10:14:01.331Z,974.74
2023-03-15T10:15:01.319Z,974.71
2023-03-15T10:16:01.354Z,974.69
2023-03-15T10:17:01.284Z,974.66
2023-03-15T10:18:01.270Z,974.67
2023-03-15T10:19:01.260Z,974.62
2023-03-15T10:20:01.318Z,974.67
2023-03-15T10:21:01.238Z,974.65
2023-03-15T10:22:01.219Z,974.62
2023-03-15T10:23:01.209Z,974.63
2023-03-15T10:24:01.220Z,974.65
2023-03-15T10:25:01.184Z,974.60
2023-03-15T10:26:01.169Z,974.65
2023-03-15T10:27:01.181Z,974.65
2023-03-15T10:28:01.162Z,974.61
2023-03-15T10:29:01.143Z,974.61
2023-03-15T10:30:01.127Z,974.56
2023-03-15T10:31:01.266Z,974.64
2023-03-15T10:32:01.179Z,974.59
2023-03-15T10:33:01.128Z,974.57
2023-03-15T10:34:01.066Z,974.53
2023-03-15T10:35:01.071Z,974.39
2023-03-15T10:36:11.301Z,974.47
2023-03-15T10:37:01.043Z,974.50
2023-03-15T10:38:01.018Z,974.52
2023-03-15T10:39:01.007Z,974.60
2023-03-15T10:40:01.025Z,974.48
2023-03-15T10:41:01.054Z,974.54
2023-03-15T10:42:00.967Z,974.60
2023-03-15T10:43:00.956Z,974.47
2023-03-15T10:44:00.952Z,974.52
2023-03-15T10:45:00.930Z,974.51
2023-03-15T10:46:00.927Z,974.48
2023-03-15T10:47:02.957Z,974.48
2023-03-15T10:48:01.234Z,974.47
2023-03-15T10:49:00.885Z,974.50
2023-03-15T10:50:00.867Z,974.50
2023-03-15T10:51:00.857Z,974.44
2023-03-15T10:52:00.842Z,974.47
2023-03-15T10:53:00.833Z,974.47
2023-03-15T10:54:00.818Z,974.50
2023-03-15T10:55:04.381Z,974.47
2023-03-15T10:56:00.825Z,974.49
2023-03-15T10:57:00.789Z,974.47
2023-03-15T10:58:00.774Z,974.51
2023-03-15T10:59:12.053Z,974.47
2023-03-15T11:00:00.748Z,974.47
2023-03-15T11:01:00.747Z,974.47
2023-03-15T11:02:00.764Z,974.49
2023-03-15T11:03:00.841Z,974.45
2023-03-15T11:04:00.702Z,974.50
2023-03-15T11:05:00.688Z,974.52
2023-03-15T11:06:00.682Z,974.48
2023-03-15T11:07:00.678Z,974.48
2023-03-15T11:08:00.659Z,974.42
2023-03-15T11:09:00.647Z,974.38
2023-03-15T11:10:00.641Z,974.38
2023-03-15T11:11:00.630Z,974.35
2023-03-15T11:12:00.630Z,974.39
2023-03-15T11:13:00.598Z,974.37
2023-03-15T11:14:00.640Z,974.34
2023-03-15T11:15:00.582Z,974.33
2023-03-15T11:16:00.598Z,974.31
2023-03-15T11:17:00.548Z,974.30
2023-03-15T11:18:00.533Z,974.33
2023-03-15T11:19:00.529Z,974.34
2023-03-15T11:20:00.509Z,974.33
2023-03-15T11:21:00.501Z,974.35
2023-03-15T11:22:00.486Z,974.31
2023-03-15T11:23:00.481Z,974.26
2023-03-15T11:24:00.460Z,974.33
2023-03-15T11:25:00.486Z,974.35
2023-03-15T11:26:00.440Z,974.32
2023-03-15T11:27:00.426Z,974.34
2023-03-15T11:28:00.449Z,974.29
2023-03-15T11:29:00.408Z,974.30
2023-03-15T11:30:00.390Z,974.27
2023-03-15T11:31:00.379Z,974.28
2023-03-15T11:32:00.357Z,974.27
2023-03-15T11:33:00.401Z,974.29
2023-03-15T11:34:00.335Z,974.29
2023-03-15T11:35:00.322Z,974.32
2023-03-15T11:36:00.339Z,974.31
2023-03-15T11:37:08.049Z,974.35
2023-03-15T11:38:12.942Z,974.28
2023-03-15T11:39:02.862Z,974.26
2023-03-15T11:40:10.577Z,974.21
2023-03-15T11:41:00.250Z,974.24
2023-03-15T11:42:00.239Z,974.19
2023-03-15T11:43:00.251Z,974.20
2023-03-15T11:44:00.240Z,974.22
2023-03-15T11:45:00.203Z,974.23
2023-03-15T11:46:00.326Z,974.19
2023-03-15T11:47:00.217Z,974.11
2023-03-15T11:48:00.181Z,974.08
2023-03-15T11:49:00.154Z,974.10
2023-03-15T11:50:00.150Z,974.09
2023-03-15T11:51:00.134Z,974.05
2023-03-15T11:52:00.117Z,974.06
2023-03-15T11:53:00.105Z,974.05
2023-03-15T11:54:00.093Z,974.06
2023-03-15T11:55:00.079Z,974.06
2023-03-15T11:56:00.066Z,974.04
2023-03-15T11:57:00.055Z,974.07
2023-03-15T11:58:00.040Z,974.06
2023-03-15T11:59:01.112Z,974.01
2023-03-15T12:00:00.204Z,974.00
2023-03-15T12:01:00.007Z,974.05
2023-03-15T12:02:00.085Z,974.03
2023-03-15T12:03:00.051Z,974.05
2023-03-15T12:03:59.971Z,974.08
2023-03-15T12:05:06.321Z,974.04
2023-03-15T12:05:59.944Z,974.03
2023-03-15T12:06:59.934Z,974.03
2023-03-15T12:07:59.923Z,974.03
2023-03-15T12:08:59.922Z,974.01
2023-03-15T12:09:59.897Z,974.02
2023-03-15T12:10:59.887Z,973.96
2023-03-15T12:11:59.888Z,973.98
2023-03-15T12:12:59.874Z,973.92
2023-03-15T12:13:59.868Z,973.95
2023-03-15T12:14:59.857Z,973.96
2023-03-15T12:16:59.934Z,973.98
2023-03-15T12:17:59.808Z,973.93
2023-03-15T12:18:59.791Z,973.92
2023-03-15T12:19:59.781Z,973.90
2023-03-15T12:20:59.769Z,973.88
2023-03-15T12:21:59.759Z,973.91
2023-03-15T12:22:59.742Z,973.86
2023-03-15T12:23:59.734Z,973.85
2023-03-15T12:24:59.720Z,973.94
2023-03-15T12:25:59.718Z,973.89
2023-03-15T12:26:59.694Z,973.99
2023-03-15T12:27:59.687Z,974.01
2023-03-15T12:28:59.671Z,973.99
2023-03-15T12:29:59.666Z,973.95